createdAt,value
2018-05-21T00:00:43.411Z,13.80
2018-05-21T00:03:10.833Z,13.70
2018-05-21T00:05:38.300Z,10.80
2018-05-21T00:08:05.761Z,13.70
2018-05-21T00:10:33.205Z,13.60
2018-05-21T00:13:00.647Z,13.60
2018-05-21T00:15:28.073Z,13.60
2018-05-21T00:17:55.492Z,13.50
2018-05-21T00:20:23.025Z,13.50
2018-05-21T00:22:50.471Z,13.50
2018-05-21T00:25:18.012Z,13.50
2018-05-21T00:27:45.580Z,13.40
2018-05-21T00:30:13.004Z,13.50
2018-05-21T00:32:41.313Z,13.40
2018-05-21T00:35:08.738Z,13.30
2018-05-21T00:37:36.962Z,13.30
2018-05-21T00:40:04.401Z,13.30
2018-05-21T00:42:31.845Z,13.40
2018-05-21T00:44:59.339Z,13.30
2018-05-21T00:47:26.764Z,13.20
2018-05-21T00:49:54.249Z,13.20
2018-05-21T00:52:21.690Z,13.10
2018-05-21T00:55:01.070Z,13.10
2018-05-21T00:57:28.495Z,13.00
2018-05-21T00:59:55.949Z,13.00
2018-05-21T01:02:23.409Z,13.00
2018-05-21T01:04:50.860Z,13.00
2018-05-21T01:07:18.292Z,13.00
2018-05-21T01:09:45.774Z,12.90
2018-05-21T01:12:13.235Z,12.90
2018-05-21T01:14:40.671Z,12.80
2018-05-21T01:17:08.124Z,12.80
2018-05-21T01:19:35.548Z,12.70
2018-05-21T01:22:03.772Z,12.70
2018-05-21T01:24:31.202Z,12.60
2018-05-21T01:26:58.641Z,12.60
2018-05-21T01:29:26.143Z,12.70
2018-05-21T01:31:53.580Z,12.70
2018-05-21T01:34:21.064Z,12.60
2018-05-21T01:36:48.508Z,12.60
2018-05-21T01:39:15.947Z,12.60
2018-05-21T01:41:43.384Z,12.60
2018-05-21T01:44:10.884Z,12.50
2018-05-21T01:46:38.321Z,12.60
2018-05-21T01:49:05.808Z,12.50
2018-05-21T01:51:38.337Z,12.60
2018-05-21T01:54:05.813Z,12.50
2018-05-21T01:56:33.254Z,12.50
2018-05-21T01:59:00.695Z,12.40
2018-05-21T02:01:28.132Z,12.40
2018-05-21T02:03:56.389Z,12.40
2018-05-21T02:06:23.903Z,12.30
2018-05-21T02:08:51.361Z,12.40
2018-05-21T02:11:18.772Z,12.30
2018-05-21T02:13:46.965Z,12.30
2018-05-21T02:16:14.407Z,12.20
2018-05-21T02:18:42.638Z,12.20
2018-05-21T02:21:10.099Z,12.20
2018-05-21T02:23:37.536Z,12.20
2018-05-21T02:26:04.968Z,12.30
2018-05-21T02:28:32.405Z,12.20
2018-05-21T02:31:00.609Z,12.10
2018-05-21T02:33:28.037Z,12.10
2018-05-21T02:35:56.280Z,12.10
2018-05-21T02:38:23.716Z,12.10
2018-05-21T02:40:51.164Z,12.10
2018-05-21T02:43:18.601Z,12.00
2018-05-21T02:45:46.040Z,12.00
2018-05-21T02:48:14.234Z,12.00
2018-05-21T02:50:41.709Z,11.80
2018-05-21T02:53:09.157Z,11.90
2018-05-21T02:55:36.652Z,11.90
2018-05-21T02:58:04.152Z,12.00
2018-05-21T03:00:31.596Z,11.90
2018-05-21T03:02:59.820Z,11.90
2018-05-21T03:05:27.258Z,11.80
2018-05-21T03:07:54.732Z,11.90
2018-05-21T03:10:22.156Z,11.90
2018-05-21T03:12:49.627Z,11.90
2018-05-21T03:15:17.096Z,11.90
2018-05-21T03:17:44.564Z,11.90
2018-05-21T03:20:11.993Z,11.90
2018-05-21T03:22:39.440Z,11.80
2018-05-21T03:25:06.924Z,11.80
2018-05-21T03:27:34.361Z,11.80
2018-05-21T03:30:01.827Z,11.90
2018-05-21T03:32:29.306Z,11.80
2018-05-21T03:34:56.729Z,11.80
2018-05-21T03:37:24.178Z,11.90
2018-05-21T03:39:51.646Z,11.90
2018-05-21T03:42:19.070Z,11.90
2018-05-21T03:44:47.272Z,11.80
2018-05-21T03:47:14.713Z,11.80
2018-05-21T03:49:42.162Z,11.80
2018-05-21T03:52:10.362Z,11.90
2018-05-21T03:54:37.793Z,11.80
2018-05-21T03:57:05.999Z,12.00
2018-05-21T04:02:41.055Z,12.10
2018-05-21T04:05:08.500Z,12.20
2018-05-21T04:07:35.938Z,12.30
2018-05-21T04:10:04.136Z,12.40
2018-05-21T04:12:31.689Z,12.40
2018-05-21T04:14:59.100Z,12.50
2018-05-21T04:17:27.305Z,12.60
2018-05-21T04:19:54.817Z,12.60
2018-05-21T04:22:22.259Z,12.70
2018-05-21T04:24:49.684Z,12.80
2018-05-21T04:27:17.139Z,12.90
2018-05-21T04:29:44.644Z,13.00
2018-05-21T04:32:12.083Z,13.10
2018-05-21T04:34:39.512Z,13.10
2018-05-21T04:37:06.945Z,13.20
2018-05-21T04:39:34.384Z,13.20
2018-05-21T04:42:02.628Z,13.40
2018-05-21T04:44:30.076Z,13.30
2018-05-21T04:46:57.532Z,13.40
2018-05-21T04:49:24.989Z,13.40
2018-05-21T04:51:52.447Z,13.50
2018-05-21T04:54:19.887Z,13.50
2018-05-21T04:56:47.371Z,13.50
2018-05-21T04:59:14.812Z,13.50
2018-05-21T05:01:42.268Z,13.50
2018-05-21T05:04:09.718Z,13.50
2018-05-21T05:06:37.182Z,13.50
2018-05-21T05:09:04.644Z,13.60
2018-05-21T05:11:32.108Z,13.70
2018-05-21T05:13:59.556Z,13.60
2018-05-21T05:16:27.042Z,13.60
2018-05-21T05:18:54.435Z,13.70
2018-05-21T05:21:21.929Z,13.70
2018-05-21T05:23:49.376Z,13.80
2018-05-21T05:26:16.808Z,13.90
2018-05-21T05:28:44.244Z,14.00
2018-05-21T05:31:12.439Z,14.10
2018-05-21T05:33:39.883Z,14.10
2018-05-21T05:36:07.436Z,14.10
2018-05-21T05:38:34.917Z,14.20
2018-05-21T05:41:02.329Z,14.20
2018-05-21T05:43:30.576Z,14.30
2018-05-21T05:45:58.108Z,14.30
2018-05-21T05:51:00.186Z,14.50
2018-05-21T05:53:27.629Z,14.50
2018-05-21T05:55:55.073Z,14.60
2018-05-21T05:58:23.272Z,14.80
2018-05-21T06:00:50.712Z,14.80
2018-05-21T06:03:18.225Z,15.00
2018-05-21T06:05:45.661Z,15.00
2018-05-21T06:08:13.127Z,15.20
2018-05-21T06:10:40.566Z,15.20
2018-05-21T06:13:08.032Z,15.20
2018-05-21T06:15:35.513Z,15.30
2018-05-21T06:18:02.967Z,15.40
2018-05-21T06:20:30.404Z,15.50
2018-05-21T06:22:57.848Z,15.50
2018-05-21T06:25:25.303Z,15.60
2018-05-21T06:27:52.730Z,15.70
2018-05-21T06:30:20.984Z,16.00
2018-05-21T06:32:48.408Z,16.00
2018-05-21T06:35:15.845Z,16.20
2018-05-21T06:37:43.421Z,16.20
2018-05-21T06:40:11.917Z,16.30
2018-05-21T06:42:39.464Z,16.40
2018-05-21T06:45:06.940Z,16.40
2018-05-21T06:47:34.364Z,16.60
2018-05-21T06:50:01.805Z,16.60
2018-05-21T06:52:29.247Z,16.70
2018-05-21T06:54:56.696Z,16.80
2018-05-21T06:57:24.185Z,16.90
2018-05-21T06:59:51.823Z,16.90
2018-05-21T07:02:19.120Z,17.00
2018-05-21T07:04:46.561Z,17.00
2018-05-21T07:07:14.018Z,17.10
2018-05-21T07:09:41.457Z,17.20
2018-05-21T07:12:08.943Z,17.30
2018-05-21T07:14:36.381Z,17.40
2018-05-21T07:17:03.824Z,17.50
2018-05-21T07:19:31.284Z,17.60
2018-05-21T07:22:00.096Z,17.90
2018-05-21T07:24:27.822Z,18.00
2018-05-21T07:26:55.164Z,18.20
2018-05-21T07:29:23.473Z,18.30
2018-05-21T07:31:50.899Z,18.30
2018-05-21T07:34:19.104Z,18.60
2018-05-21T07:36:46.568Z,18.50
2018-05-21T07:39:14.117Z,18.70
2018-05-21T07:44:15.602Z,18.80
2018-05-21T07:46:43.036Z,19.00
2018-05-21T07:49:10.528Z,19.00
2018-05-21T07:51:38.084Z,19.00
2018-05-21T07:54:05.434Z,19.10
2018-05-21T07:56:32.967Z,19.20
2018-05-21T07:59:00.398Z,19.30
2018-05-21T08:01:28.924Z,19.60
2018-05-21T08:03:56.360Z,19.50
2018-05-21T08:06:23.817Z,19.80
2018-05-21T08:08:51.248Z,19.90
2018-05-21T08:11:18.729Z,20.00
2018-05-21T08:13:46.148Z,20.00
2018-05-21T08:16:14.385Z,20.10
2018-05-21T08:18:41.845Z,20.10
2018-05-21T08:21:09.288Z,20.20
2018-05-21T08:23:36.714Z,20.20
2018-05-21T08:26:04.289Z,20.30
2018-05-21T08:28:31.776Z,20.30
2018-05-21T08:30:59.223Z,20.30
2018-05-21T08:33:26.662Z,20.40
2018-05-21T08:35:54.135Z,20.40
2018-05-21T08:38:21.574Z,20.50
2018-05-21T08:40:49.032Z,20.40
2018-05-21T08:43:16.473Z,20.40
2018-05-21T08:45:44.052Z,20.40
2018-05-21T08:48:11.473Z,20.40
2018-05-21T08:50:38.901Z,20.50
2018-05-21T08:53:07.244Z,20.60
2018-05-21T08:55:34.701Z,20.60
2018-05-21T08:58:02.133Z,20.60
2018-05-21T09:00:29.686Z,20.70
2018-05-21T09:02:57.096Z,20.70
2018-05-21T09:05:24.659Z,20.80
2018-05-21T09:07:52.104Z,20.90
2018-05-21T09:10:19.552Z,21.00
2018-05-21T09:12:47.009Z,21.10
2018-05-21T09:15:14.463Z,21.20
2018-05-21T09:17:41.917Z,21.10
2018-05-21T09:20:09.360Z,21.10
2018-05-21T09:22:36.865Z,21.20
2018-05-21T09:25:04.323Z,21.20
2018-05-21T09:27:32.529Z,21.30
2018-05-21T09:29:59.989Z,21.30
2018-05-21T09:32:27.420Z,21.40
2018-05-21T09:34:55.604Z,21.70
2018-05-21T09:37:23.844Z,21.70
2018-05-21T09:39:51.314Z,21.70
2018-05-21T09:42:18.860Z,21.80
2018-05-21T09:44:46.311Z,21.70
2018-05-21T09:47:13.796Z,21.70
2018-05-21T09:49:42.026Z,21.60
2018-05-21T09:52:09.461Z,21.60
2018-05-21T09:54:36.917Z,21.60
2018-05-21T09:57:04.348Z,21.60
2018-05-21T09:59:31.823Z,21.70
2018-05-21T10:01:59.241Z,21.90
2018-05-21T10:04:27.470Z,22.00
2018-05-21T10:06:54.913Z,21.90
2018-05-21T10:09:22.368Z,22.10
2018-05-21T10:11:49.796Z,22.10
2018-05-21T10:14:17.985Z,22.10
2018-05-21T10:16:45.455Z,22.00
2018-05-21T10:19:12.887Z,22.20
2018-05-21T10:21:40.345Z,22.30
2018-05-21T10:24:07.784Z,22.40
2018-05-21T10:26:36.062Z,22.50
2018-05-21T10:29:03.516Z,22.50
2018-05-21T10:31:30.942Z,22.60
2018-05-21T10:33:58.409Z,22.60
2018-05-21T10:36:25.846Z,22.70
2018-05-21T10:38:53.282Z,22.70
2018-05-21T10:41:20.756Z,22.70
2018-05-21T10:43:48.343Z,22.70
2018-05-21T10:46:15.754Z,22.70
2018-05-21T10:48:43.230Z,22.80
2018-05-21T10:51:10.697Z,22.90
2018-05-21T10:53:38.128Z,22.80
2018-05-21T10:56:05.686Z,22.80
2018-05-21T10:58:33.033Z,22.70
2018-05-21T11:01:00.517Z,22.70
2018-05-21T11:03:27.952Z,22.70
2018-05-21T11:05:55.466Z,22.80
2018-05-21T11:08:22.903Z,22.90
2018-05-21T11:10:50.351Z,23.00
2018-05-21T11:13:17.801Z,23.00
2018-05-21T11:15:45.234Z,23.10
2018-05-21T11:18:12.789Z,23.10
2018-05-21T11:20:40.213Z,23.00
2018-05-21T11:23:08.413Z,23.20
2018-05-21T11:25:35.904Z,23.20
2018-05-21T11:28:03.352Z,23.30
2018-05-21T11:30:30.813Z,23.10
2018-05-21T11:32:59.245Z,23.20
2018-05-21T11:35:26.722Z,23.20
2018-05-21T11:37:54.179Z,23.30
2018-05-21T11:40:21.640Z,23.40
2018-05-21T11:42:49.195Z,23.40
2018-05-21T11:45:16.654Z,23.40
2018-05-21T11:47:44.110Z,23.50
2018-05-21T11:50:11.569Z,23.40
2018-05-21T11:52:39.080Z,23.40
2018-05-21T11:55:06.521Z,23.40
2018-05-21T11:57:34.072Z,23.40
2018-05-21T12:00:02.282Z,23.30
2018-05-21T12:02:29.725Z,23.20
2018-05-21T12:04:57.932Z,23.40
2018-05-21T12:07:25.439Z,23.40
2018-05-21T12:09:52.884Z,23.50
2018-05-21T12:12:20.338Z,23.60
2018-05-21T12:14:47.868Z,23.60
2018-05-21T12:17:15.288Z,23.60
2018-05-21T12:19:43.481Z,23.80
2018-05-21T12:22:10.980Z,23.70
2018-05-21T12:24:38.407Z,23.90
2018-05-21T12:27:05.865Z,23.90
2018-05-21T12:29:33.301Z,24.10
2018-05-21T12:32:00.736Z,24.20
2018-05-21T12:34:29.055Z,24.20
2018-05-21T12:36:56.510Z,24.20
2018-05-21T12:39:24.026Z,24.30
2018-05-21T12:41:52.242Z,24.30
2018-05-21T12:44:19.683Z,24.30
2018-05-21T12:46:47.182Z,24.20
2018-05-21T12:49:14.707Z,24.10
2018-05-21T12:51:42.172Z,24.00
2018-05-21T12:54:09.725Z,24.00
2018-05-21T12:56:37.202Z,23.90
2018-05-21T12:59:04.646Z,24.00
2018-05-21T13:01:32.126Z,24.00
2018-05-21T13:03:59.637Z,24.10
2018-05-21T13:06:27.932Z,24.00
2018-05-21T13:08:55.392Z,23.90
2018-05-21T13:11:22.842Z,24.10
2018-05-21T13:13:50.308Z,24.20
2018-05-21T13:16:17.775Z,24.20
2018-05-21T13:18:45.245Z,24.30
2018-05-21T13:21:12.789Z,24.30
2018-05-21T13:23:40.394Z,24.30
2018-05-21T13:26:08.647Z,24.00
2018-05-21T13:28:36.102Z,24.00
2018-05-21T13:31:03.622Z,24.00
2018-05-21T13:33:31.057Z,24.10
2018-05-21T13:35:58.520Z,24.20
2018-05-21T13:38:25.970Z,24.40
2018-05-21T13:40:53.409Z,24.50
2018-05-21T13:43:21.614Z,24.50
2018-05-21T13:45:49.084Z,24.50
2018-05-21T13:48:16.517Z,24.60
2018-05-21T13:50:43.955Z,24.60
2018-05-21T13:53:11.476Z,24.70
2018-05-21T13:55:38.929Z,24.70
2018-05-21T13:58:06.389Z,24.80
2018-05-21T14:00:33.877Z,24.90
2018-05-21T14:03:02.108Z,24.90
2018-05-21T14:05:29.544Z,24.80
2018-05-21T14:07:57.013Z,24.90
2018-05-21T14:10:24.437Z,24.70
2018-05-21T14:12:51.937Z,24.80
2018-05-21T14:15:19.408Z,24.80
2018-05-21T14:17:47.053Z,24.90
2018-05-21T14:20:14.596Z,25.10
2018-05-21T14:22:42.032Z,25.10
2018-05-21T14:25:09.552Z,25.10
2018-05-21T14:27:36.932Z,25.10
2018-05-21T14:30:05.180Z,25.00
2018-05-21T14:32:32.695Z,24.90
2018-05-21T14:35:00.192Z,25.00
2018-05-21T14:37:27.649Z,25.10
2018-05-21T14:39:55.089Z,25.10
2018-05-21T14:42:22.565Z,25.20
2018-05-21T14:44:50.001Z,25.20
2018-05-21T14:47:17.448Z,25.10
2018-05-21T14:49:44.900Z,25.10
2018-05-21T14:52:12.349Z,25.00
2018-05-21T14:54:40.652Z,25.00
2018-05-21T14:57:08.102Z,25.00
2018-05-21T14:59:35.539Z,25.00
2018-05-21T15:02:03.021Z,25.20
2018-05-21T15:04:30.474Z,25.40
2018-05-21T15:06:57.936Z,25.50
2018-05-21T15:09:25.408Z,25.60
2018-05-21T15:11:52.876Z,25.70
2018-05-21T15:14:20.376Z,26.00
2018-05-21T15:16:47.838Z,26.30
2018-05-21T15:19:15.275Z,27.40
2018-05-21T15:21:42.845Z,28.70
2018-05-21T15:24:10.317Z,29.20
2018-05-21T15:26:37.740Z,29.90
2018-05-21T15:29:05.187Z,30.70
2018-05-21T15:31:33.410Z,30.40
2018-05-21T15:34:00.889Z,30.40
2018-05-21T15:36:28.347Z,29.30
2018-05-21T15:38:55.804Z,28.50
2018-05-21T15:41:23.300Z,28.70
2018-05-21T15:43:50.745Z,29.70
2018-05-21T15:46:19.023Z,31.70
2018-05-21T15:48:47.216Z,32.10
2018-05-21T15:51:14.665Z,32.00
2018-05-21T15:53:42.133Z,32.70
2018-05-21T15:56:09.560Z,33.30
2018-05-21T15:58:37.760Z,34.20
2018-05-21T16:01:05.268Z,34.20
2018-05-21T16:03:33.484Z,34.40
2018-05-21T16:06:00.973Z,34.30
2018-05-21T16:08:28.515Z,34.50
2018-05-21T16:10:55.961Z,33.50
2018-05-21T16:13:23.397Z,32.90
2018-05-21T16:15:51.698Z,31.10
2018-05-21T16:18:19.136Z,31.00
2018-05-21T16:20:46.574Z,31.40
2018-05-21T16:23:14.874Z,31.70
2018-05-21T16:25:42.253Z,31.60
2018-05-21T16:28:09.721Z,31.50
2018-05-21T16:30:37.165Z,31.50
2018-05-21T16:33:04.609Z,31.90
2018-05-21T16:35:32.143Z,32.20
2018-05-21T16:37:59.543Z,32.50
2018-05-21T16:40:26.980Z,33.30
2018-05-21T16:42:54.409Z,33.70
2018-05-21T16:45:22.598Z,32.90
2018-05-21T16:47:50.081Z,32.80
2018-05-21T16:50:17.479Z,32.50
2018-05-21T16:52:44.984Z,32.80
2018-05-21T16:55:12.504Z,32.80
2018-05-21T16:57:39.951Z,33.00
2018-05-21T17:00:07.442Z,32.50
2018-05-21T17:02:35.620Z,32.20
2018-05-21T17:05:03.065Z,32.20
2018-05-21T17:07:30.537Z,31.70
2018-05-21T17:09:58.013Z,31.60
2018-05-21T17:12:25.453Z,31.80
2018-05-21T17:14:52.913Z,31.60
2018-05-21T17:17:20.344Z,31.40
2018-05-21T17:19:47.914Z,31.30
2018-05-21T17:22:15.385Z,31.60
2018-05-21T17:24:42.907Z,31.80
2018-05-21T17:27:11.120Z,31.10
2018-05-21T17:29:38.672Z,31.00
2018-05-21T17:32:06.158Z,30.30
2018-05-21T17:34:33.588Z,29.90
2018-05-21T17:37:01.037Z,29.80
2018-05-21T17:39:28.502Z,29.90
2018-05-21T17:41:55.936Z,29.80
2018-05-21T17:44:23.411Z,29.40
2018-05-21T17:46:50.848Z,29.00
2018-05-21T17:49:18.287Z,28.70
2018-05-21T17:51:45.821Z,28.30
2018-05-21T17:54:13.257Z,27.80
2018-05-21T17:56:40.733Z,27.30
2018-05-21T17:59:08.156Z,26.70
2018-05-21T18:01:35.618Z,26.30
2018-05-21T18:04:03.103Z,26.00
2018-05-21T18:06:30.560Z,25.70
2018-05-21T18:08:58.034Z,25.50
2018-05-21T18:11:25.440Z,25.30
2018-05-21T18:13:52.914Z,25.30
2018-05-21T18:16:20.360Z,25.20
2018-05-21T18:18:47.882Z,25.10
2018-05-21T18:21:15.273Z,25.00
2018-05-21T18:23:42.724Z,24.70
2018-05-21T18:26:10.178Z,24.40
2018-05-21T18:28:37.611Z,24.30
2018-05-21T18:31:05.069Z,24.10
2018-05-21T18:33:32.520Z,23.90
2018-05-21T18:36:00.027Z,23.70
2018-05-21T18:38:27.428Z,23.60
2018-05-21T18:40:54.870Z,23.60
2018-05-21T18:43:23.061Z,23.40
2018-05-21T18:45:50.500Z,23.30
2018-05-21T18:48:18.791Z,23.20
2018-05-21T18:50:46.150Z,23.10
2018-05-21T18:53:13.590Z,23.10
2018-05-21T18:55:41.825Z,22.90
2018-05-21T18:58:09.276Z,22.80
2018-05-21T19:00:36.717Z,22.90
2018-05-21T19:03:04.152Z,22.70
2018-05-21T19:05:31.637Z,22.60
2018-05-21T19:07:59.066Z,22.50
2018-05-21T19:10:27.509Z,22.30
2018-05-21T19:12:55.027Z,22.30
2018-05-21T19:15:22.452Z,22.20
2018-05-21T19:17:49.898Z,22.10
2018-05-21T19:20:18.137Z,22.00
2018-05-21T19:22:45.593Z,22.00
2018-05-21T19:25:13.055Z,22.00
2018-05-21T19:27:40.579Z,21.90
2018-05-21T19:30:08.034Z,21.80
2018-05-21T19:32:35.529Z,21.70
2018-05-21T19:35:02.977Z,21.60
2018-05-21T19:37:30.508Z,21.60
2018-05-21T19:39:57.939Z,21.50
2018-05-21T19:42:26.239Z,21.30
2018-05-21T19:44:53.665Z,21.30
2018-05-21T19:47:21.868Z,21.10
2018-05-21T19:49:49.381Z,21.00
2018-05-21T19:52:16.881Z,21.00
2018-05-21T19:54:44.302Z,20.80
2018-05-21T19:57:12.515Z,20.50
2018-05-21T19:59:39.970Z,20.50
2018-05-21T20:02:07.393Z,20.50
2018-05-21T20:04:35.605Z,20.30
2018-05-21T20:07:03.037Z,20.20
2018-05-21T20:09:30.460Z,20.20
2018-05-21T20:11:57.903Z,20.10
2018-05-21T20:14:25.340Z,20.00
2018-05-21T20:16:52.781Z,20.00
2018-05-21T20:19:20.244Z,19.90
2018-05-21T20:21:47.654Z,19.80
2018-05-21T20:24:15.864Z,19.80
2018-05-21T20:26:43.300Z,19.70
2018-05-21T20:29:10.763Z,19.70
2018-05-21T20:31:38.264Z,19.60
2018-05-21T20:34:05.841Z,19.50
2018-05-21T20:36:33.353Z,19.40
2018-05-21T20:39:00.810Z,19.40
2018-05-21T20:41:28.264Z,19.20
2018-05-21T20:43:55.720Z,19.20
2018-05-21T20:46:23.145Z,19.10
2018-05-21T20:48:51.356Z,19.10
2018-05-21T20:51:18.812Z,19.00
2018-05-21T20:53:46.285Z,19.00
2018-05-21T20:56:13.753Z,19.00
2018-05-21T20:58:41.189Z,19.00
2018-05-21T21:01:08.980Z,18.90
2018-05-21T21:03:36.384Z,18.90
2018-05-21T21:06:03.840Z,18.80
2018-05-21T21:08:31.289Z,18.80
2018-05-21T21:10:58.772Z,18.70
2018-05-21T21:13:26.200Z,18.70
2018-05-21T21:15:53.645Z,18.60
2018-05-21T21:18:21.894Z,18.50
2018-05-21T21:20:49.344Z,18.40
2018-05-21T21:23:16.948Z,18.40
2018-05-21T21:25:44.364Z,18.40
2018-05-21T21:28:11.897Z,18.30
2018-05-21T21:30:39.363Z,18.30
2018-05-21T21:33:06.835Z,18.20
2018-05-21T21:35:34.304Z,18.20
2018-05-21T21:38:01.911Z,18.10
2018-05-21T21:40:29.344Z,18.10
2018-05-21T21:42:56.792Z,18.10
2018-05-21T21:45:25.029Z,18.00
2018-05-21T21:47:52.499Z,17.90
2018-05-21T21:50:19.930Z,18.00
2018-05-21T21:52:47.380Z,17.90
2018-05-21T21:55:14.844Z,17.90
2018-05-21T21:57:42.334Z,17.90
2018-05-21T22:00:09.784Z,17.80
2018-05-21T22:02:37.234Z,17.80
2018-05-21T22:05:04.693Z,17.70
2018-05-21T22:07:32.181Z,17.70
2018-05-21T22:10:00.400Z,17.60
2018-05-21T22:12:27.825Z,17.60
2018-05-21T22:14:56.187Z,17.60
2018-05-21T22:17:23.646Z,17.50
2018-05-21T22:19:51.863Z,17.50
2018-05-21T22:22:19.300Z,17.40
2018-05-21T22:24:46.733Z,17.40
2018-05-21T22:27:14.158Z,17.40
2018-05-21T22:29:41.624Z,17.30
2018-05-21T22:32:09.056Z,17.30
2018-05-21T22:34:36.521Z,17.30
2018-05-21T22:37:03.963Z,17.20
2018-05-21T22:39:31.431Z,17.20
2018-05-21T22:41:58.882Z,17.10
2018-05-21T22:44:26.321Z,17.10
2018-05-21T22:46:53.806Z,17.10
2018-05-21T22:49:21.255Z,17.00
2018-05-21T22:51:48.697Z,17.00
2018-05-21T22:54:27.873Z,16.90
2018-05-21T22:56:56.064Z,16.90
2018-05-21T22:59:23.502Z,16.80
2018-05-21T23:01:50.949Z,16.80
2018-05-21T23:04:18.377Z,16.80
2018-05-21T23:06:45.833Z,16.70
2018-05-21T23:09:13.280Z,16.70
2018-05-21T23:11:40.748Z,16.60
2018-05-21T23:14:08.181Z,16.60
2018-05-21T23:16:35.625Z,16.60
2018-05-21T23:19:03.112Z,16.50
2018-05-21T23:21:30.551Z,16.50
2018-05-21T23:23:58.035Z,16.50
2018-05-21T23:26:25.465Z,16.50
2018-05-21T23:28:52.942Z,16.40
2018-05-21T23:31:20.479Z,16.30
2018-05-21T23:33:47.911Z,16.30
2018-05-21T23:36:15.394Z,16.20
2018-05-21T23:38:42.829Z,16.20
2018-05-21T23:41:10.341Z,16.10
2018-05-21T23:43:37.785Z,16.10
2018-05-21T23:46:05.217Z,16.20
2018-05-21T23:48:32.661Z,16.20
2018-05-21T23:51:00.109Z,16.20
2018-05-21T23:53:28.338Z,16.00
2018-05-21T23:55:55.757Z,16.00
2018-05-21T23:58:23.196Z,16.00
